createdAt,value
2022-08-23T00:12:58.992Z,6.10
2022-08-23T00:28:00.982Z,6.10
2022-08-23T00:43:02.782Z,5.90
2022-08-23T00:58:08.152Z,5.80
2022-08-23T01:13:11.253Z,5.90
2022-08-23T01:28:13.377Z,5.80
2022-08-23T01:43:14.753Z,5.60
2022-08-23T01:58:16.671Z,6.30
2022-08-23T02:13:17.396Z,6.30
2022-08-23T02:28:19.752Z,6.10
2022-08-23T02:43:21.151Z,5.60
2022-08-23T02:58:22.552Z,6.20
2022-08-23T03:13:23.683Z,6.70
2022-08-23T03:28:24.844Z,6.70
2022-08-23T03:43:25.897Z,6.50
2022-08-23T03:58:29.080Z,6.60
2022-08-23T04:13:30.097Z,7.00
2022-08-23T04:28:31.715Z,7.40
2022-08-23T04:43:32.626Z,6.60
2022-08-23T04:58:33.759Z,6.10
2022-08-23T05:13:34.993Z,6.60
2022-08-23T05:28:36.386Z,5.30
2022-08-23T05:43:37.325Z,5.30
2022-08-23T05:58:38.723Z,5.10
2022-08-23T06:13:38.808Z,5.00
2022-08-23T06:28:50.118Z,5.00
2022-08-23T06:43:44.610Z,4.90
2022-08-23T06:58:45.674Z,4.00
2022-08-23T07:13:46.785Z,3.80
2022-08-23T07:28:46.941Z,3.40
2022-08-23T07:43:48.516Z,2.70
2022-08-23T07:58:49.351Z,3.00
2022-08-23T08:13:51.412Z,2.50
2022-08-23T08:28:51.750Z,2.40
2022-08-23T08:43:52.883Z,3.20
2022-08-23T08:58:54.843Z,2.60
2022-08-23T09:13:55.250Z,2.90
2022-08-23T09:28:56.706Z,2.60
2022-08-23T09:43:58.263Z,2.60
2022-08-23T09:58:58.883Z,2.10
2022-08-23T10:14:00.531Z,2.00
2022-08-23T10:29:01.248Z,1.70
2022-08-23T10:44:02.373Z,2.30
2022-08-23T10:59:03.436Z,2.00
2022-08-23T11:14:04.298Z,2.30
2022-08-23T11:29:04.963Z,2.10
2022-08-23T11:44:05.935Z,2.40
2022-08-23T11:59:08.698Z,1.80
2022-08-23T12:14:10.337Z,1.90
2022-08-23T12:29:12.253Z,1.90
2022-08-23T12:44:13.765Z,1.70
2022-08-23T12:59:14.079Z,1.50
2022-08-23T13:14:15.171Z,1.90
2022-08-23T13:29:16.203Z,1.80
2022-08-23T13:44:19.225Z,1.90
2022-08-23T13:59:21.886Z,1.80
2022-08-23T14:14:24.401Z,2.00
2022-08-23T14:29:25.436Z,1.90
2022-08-23T14:44:31.437Z,1.90
2022-08-23T14:59:32.787Z,2.00
2022-08-23T15:14:35.906Z,2.10
2022-08-23T15:29:37.716Z,1.80
2022-08-23T15:44:41.816Z,2.00
2022-08-23T15:59:43.232Z,1.80
2022-08-23T16:14:44.288Z,1.60
2022-08-23T16:31:38.392Z,1.80
2022-08-23T16:46:37.627Z,1.60
2022-08-23T17:01:38.105Z,1.90
2022-08-23T17:16:38.713Z,2.00
2022-08-23T17:31:39.169Z,2.00
2022-08-23T17:46:40.362Z,2.10
2022-08-23T18:01:41.192Z,2.40
2022-08-23T18:16:41.794Z,2.70
2022-08-23T18:31:45.886Z,3.00
2022-08-23T18:46:45.935Z,3.50
2022-08-23T19:01:46.134Z,3.90
2022-08-23T19:16:48.526Z,4.50
2022-08-23T19:31:49.261Z,4.50
2022-08-23T19:46:50.546Z,4.90
2022-08-23T20:01:50.693Z,5.10
2022-08-23T20:16:50.798Z,4.60
2022-08-23T20:31:50.836Z,4.60
2022-08-23T20:46:54.329Z,4.60
2022-08-23T21:01:55.071Z,4.30
2022-08-23T21:16:55.067Z,4.20
2022-08-23T21:31:55.752Z,4.40
2022-08-23T21:46:56.769Z,4.50
2022-08-23T22:01:57.401Z,4.80
2022-08-23T22:16:57.961Z,4.60
2022-08-23T22:31:58.054Z,5.30
2022-08-23T22:46:58.154Z,5.50
2022-08-23T23:01:58.419Z,6.10
2022-08-23T23:16:59.481Z,6.10
2022-08-23T23:31:59.465Z,6.10
2022-08-23T23:46:59.605Z,6.10
